sensor_id;sensor_type;location;lat;lon;timestamp;temperature;humidity
7720;DHT22;3902;49.474;8.616;2023-07-29T00:00:36;19.80;99.90
7720;DHT22;3902;49.474;8.616;2023-07-29T00:03:01;19.80;99.90
7720;DHT22;3902;49.474;8.616;2023-07-29T00:05:27;19.80;99.90
7720;DHT22;3902;49.474;8.616;2023-07-29T00:14:21;19.70;99.90
7720;DHT22;3902;49.474;8.616;2023-07-29T00:16:47;19.80;99.90
7720;DHT22;3902;49.474;8.616;2023-07-29T00:19:12;19.80;99.90
7720;DHT22;3902;49.474;8.616;2023-07-29T00:21:38;19.80;99.90
7720;DHT22;3902;49.474;8.616;2023-07-29T00:24:04;19.70;99.90
7720;DHT22;3902;49.474;8.616;2023-07-29T00:26:29;19.80;99.90
7720;DHT22;3902;49.474;8.616;2023-07-29T00:28:56;19.70;99.90
7720;DHT22;3902;49.474;8.616;2023-07-29T00:31:21;19.80;99.90
7720;DHT22;3902;49.474;8.616;2023-07-29T00:33:47;19.80;99.90
7720;DHT22;3902;49.474;8.616;2023-07-29T00:36:12;19.80;99.90
7720;DHT22;3902;49.474;8.616;2023-07-29T00:38:38;19.80;99.90
7720;DHT22;3902;49.474;8.616;2023-07-29T00:41:03;19.80;99.90
7720;DHT22;3902;49.474;8.616;2023-07-29T00:43:30;19.80;99.90
7720;DHT22;3902;49.474;8.616;2023-07-29T00:45:56;19.80;99.90
7720;DHT22;3902;49.474;8.616;2023-07-29T00:48:23;19.80;99.90
7720;DHT22;3902;49.474;8.616;2023-07-29T00:50:49;19.80;99.90
7720;DHT22;3902;49.474;8.616;2023-07-29T00:53:15;19.80;99.90
7720;DHT22;3902;49.474;8.616;2023-07-29T00:55:41;19.80;99.90
7720;DHT22;3902;49.474;8.616;2023-07-29T00:58:07;19.70;99.90
7720;DHT22;3902;49.474;8.616;2023-07-29T01:00:33;19.80;99.90
7720;DHT22;3902;49.474;8.616;2023-07-29T01:02:59;19.70;99.90
7720;DHT22;3902;49.474;8.616;2023-07-29T01:05:52;19.70;99.90
7720;DHT22;3902;49.474;8.616;2023-07-29T01:08:36;19.70;99.90
7720;DHT22;3902;49.474;8.616;2023-07-29T01:13:54;19.70;99.90
7720;DHT22;3902;49.474;8.616;2023-07-29T01:16:31;19.70;99.90
7720;DHT22;3902;49.474;8.616;2023-07-29T01:18:58;19.70;99.90
7720;DHT22;3902;49.474;8.616;2023-07-29T01:21:28;19.70;99.90
7720;DHT22;3902;49.474;8.616;2023-07-29T01:23:58;19.70;99.90
7720;DHT22;3902;49.474;8.616;2023-07-29T01:26:24;19.70;99.90
7720;DHT22;3902;49.474;8.616;2023-07-29T01:28:50;19.70;99.90
7720;DHT22;3902;49.474;8.616;2023-07-29T01:31:42;19.70;99.90
7720;DHT22;3902;49.474;8.616;2023-07-29T01:34:29;19.70;99.90
7720;DHT22;3902;49.474;8.616;2023-07-29T01:36:58;19.70;99.90
7720;DHT22;3902;49.474;8.616;2023-07-29T01:39:26;19.70;99.90
7720;DHT22;3902;49.474;8.616;2023-07-29T01:41:54;19.70;99.90
7720;DHT22;3902;49.474;8.616;2023-07-29T01:44:20;19.80;99.90
7720;DHT22;3902;49.474;8.616;2023-07-29T01:46:46;19.70;99.90
7720;DHT22;3902;49.474;8.616;2023-07-29T01:49:12;19.70;99.90
7720;DHT22;3902;49.474;8.616;2023-07-29T01:51:38;19.70;99.90
7720;DHT22;3902;49.474;8.616;2023-07-29T01:54:03;19.70;99.90
7720;DHT22;3902;49.474;8.616;2023-07-29T01:56:29;19.70;99.90
7720;DHT22;3902;49.474;8.616;2023-07-29T01:58:55;19.70;99.90
7720;DHT22;3902;49.474;8.616;2023-07-29T02:01:20;19.70;99.90
7720;DHT22;3902;49.474;8.616;2023-07-29T02:03:46;19.70;99.90
7720;DHT22;3902;49.474;8.616;2023-07-29T02:06:11;19.70;99.90
7720;DHT22;3902;49.474;8.616;2023-07-29T02:08:38;19.70;99.90
7720;DHT22;3902;49.474;8.616;2023-07-29T02:11:06;19.70;99.90
7720;DHT22;3902;49.474;8.616;2023-07-29T02:13:31;19.70;99.90
7720;DHT22;3902;49.474;8.616;2023-07-29T02:15:57;19.70;99.90
7720;DHT22;3902;49.474;8.616;2023-07-29T02:18:22;19.70;99.90
7720;DHT22;3902;49.474;8.616;2023-07-29T02:20:48;19.70;99.90
7720;DHT22;3902;49.474;8.616;2023-07-29T02:23:15;19.70;99.90
7720;DHT22;3902;49.474;8.616;2023-07-29T02:25:42;19.70;99.90
7720;DHT22;3902;49.474;8.616;2023-07-29T02:28:08;19.70;99.90
7720;DHT22;3902;49.474;8.616;2023-07-29T02:30:33;19.70;99.90
7720;DHT22;3902;49.474;8.616;2023-07-29T02:32:58;19.70;99.90
7720;DHT22;3902;49.474;8.616;2023-07-29T02:35:26;19.70;99.90
7720;DHT22;3902;49.474;8.616;2023-07-29T02:37:52;19.70;99.90
7720;DHT22;3902;49.474;8.616;2023-07-29T02:40:17;19.70;99.90
7720;DHT22;3902;49.474;8.616;2023-07-29T02:42:43;19.70;99.90
7720;DHT22;3902;49.474;8.616;2023-07-29T02:45:08;19.60;99.90
7720;DHT22;3902;49.474;8.616;2023-07-29T02:47:37;19.70;99.90
7720;DHT22;3902;49.474;8.616;2023-07-29T02:50:03;19.70;99.90
7720;DHT22;3902;49.474;8.616;2023-07-29T02:52:28;19.70;99.90
7720;DHT22;3902;49.474;8.616;2023-07-29T02:54:54;19.70;99.90
7720;DHT22;3902;49.474;8.616;2023-07-29T02:57:20;19.60;99.90
7720;DHT22;3902;49.474;8.616;2023-07-29T02:59:45;19.60;99.90
7720;DHT22;3902;49.474;8.616;2023-07-29T03:02:11;19.60;99.90
7720;DHT22;3902;49.474;8.616;2023-07-29T03:04:37;19.60;99.90
7720;DHT22;3902;49.474;8.616;2023-07-29T03:07:03;19.60;99.90
7720;DHT22;3902;49.474;8.616;2023-07-29T03:09:28;19.60;99.90
7720;DHT22;3902;49.474;8.616;2023-07-29T03:11:54;19.60;99.90
7720;DHT22;3902;49.474;8.616;2023-07-29T03:14:20;19.60;99.90
7720;DHT22;3902;49.474;8.616;2023-07-29T03:16:46;19.60;99.90
7720;DHT22;3902;49.474;8.616;2023-07-29T03:19:12;19.60;99.90
7720;DHT22;3902;49.474;8.616;2023-07-29T03:21:38;19.50;99.90
7720;DHT22;3902;49.474;8.616;2023-07-29T03:24:03;19.50;99.90
7720;DHT22;3902;49.474;8.616;2023-07-29T03:26:29;19.60;99.90
7720;DHT22;3902;49.474;8.616;2023-07-29T03:28:54;19.50;99.90
7720;DHT22;3902;49.474;8.616;2023-07-29T03:31:20;19.60;99.90
7720;DHT22;3902;49.474;8.616;2023-07-29T03:33:46;19.50;99.90
7720;DHT22;3902;49.474;8.616;2023-07-29T03:36:11;19.60;99.90
7720;DHT22;3902;49.474;8.616;2023-07-29T03:38:37;19.50;99.90
7720;DHT22;3902;49.474;8.616;2023-07-29T03:41:08;19.50;99.90
7720;DHT22;3902;49.474;8.616;2023-07-29T03:43:34;19.60;99.90
7720;DHT22;3902;49.474;8.616;2023-07-29T03:46:00;19.50;99.90
7720;DHT22;3902;49.474;8.616;2023-07-29T03:48:25;19.50;99.90
7720;DHT22;3902;49.474;8.616;2023-07-29T03:50:51;19.60;99.90
7720;DHT22;3902;49.474;8.616;2023-07-29T03:53:16;19.50;99.90
7720;DHT22;3902;49.474;8.616;2023-07-29T03:55:42;19.60;99.90
7720;DHT22;3902;49.474;8.616;2023-07-29T03:58:08;19.60;99.90
7720;DHT22;3902;49.474;8.616;2023-07-29T04:00:34;19.50;99.90
7720;DHT22;3902;49.474;8.616;2023-07-29T04:02:59;19.50;99.90
7720;DHT22;3902;49.474;8.616;2023-07-29T04:05:25;19.50;99.90
7720;DHT22;3902;49.474;8.616;2023-07-29T04:07:50;19.50;99.90
7720;DHT22;3902;49.474;8.616;2023-07-29T04:10:16;19.50;99.90
7720;DHT22;3902;49.474;8.616;2023-07-29T04:12:42;19.50;99.90
7720;DHT22;3902;49.474;8.616;2023-07-29T04:15:08;19.50;99.90
7720;DHT22;3902;49.474;8.616;2023-07-29T04:17:34;19.50;99.90
7720;DHT22;3902;49.474;8.616;2023-07-29T04:19:59;19.50;99.90
7720;DHT22;3902;49.474;8.616;2023-07-29T04:22:25;19.50;99.90
7720;DHT22;3902;49.474;8.616;2023-07-29T04:24:50;19.50;99.90
7720;DHT22;3902;49.474;8.616;2023-07-29T04:27:16;19.50;99.90
7720;DHT22;3902;49.474;8.616;2023-07-29T04:29:42;19.60;99.90
7720;DHT22;3902;49.474;8.616;2023-07-29T04:32:07;19.60;99.90
7720;DHT22;3902;49.474;8.616;2023-07-29T04:34:33;19.60;99.90
7720;DHT22;3902;49.474;8.616;2023-07-29T04:36:58;19.60;99.90
7720;DHT22;3902;49.474;8.616;2023-07-29T04:39:24;19.60;99.90
7720;DHT22;3902;49.474;8.616;2023-07-29T04:41:50;19.60;99.90
7720;DHT22;3902;49.474;8.616;2023-07-29T04:44:15;19.60;99.90
7720;DHT22;3902;49.474;8.616;2023-07-29T04:46:41;19.60;99.90
7720;DHT22;3902;49.474;8.616;2023-07-29T04:49:06;19.60;99.90
7720;DHT22;3902;49.474;8.616;2023-07-29T04:51:32;19.60;99.90
7720;DHT22;3902;49.474;8.616;2023-07-29T04:53:58;19.50;99.90
7720;DHT22;3902;49.474;8.616;2023-07-29T04:56:24;19.60;99.90
7720;DHT22;3902;49.474;8.616;2023-07-29T04:58:49;19.50;99.90
7720;DHT22;3902;49.474;8.616;2023-07-29T05:01:15;19.50;99.90
7720;DHT22;3902;49.474;8.616;2023-07-29T05:03:41;19.40;99.90
7720;DHT22;3902;49.474;8.616;2023-07-29T05:06:06;19.40;99.90
7720;DHT22;3902;49.474;8.616;2023-07-29T05:08:32;19.40;99.90
7720;DHT22;3902;49.474;8.616;2023-07-29T05:10:57;19.50;99.90
7720;DHT22;3902;49.474;8.616;2023-07-29T05:13:23;19.50;99.90
7720;DHT22;3902;49.474;8.616;2023-07-29T05:15:49;19.50;99.90
7720;DHT22;3902;49.474;8.616;2023-07-29T05:18:16;19.50;99.90
7720;DHT22;3902;49.474;8.616;2023-07-29T05:20:42;19.50;99.90
7720;DHT22;3902;49.474;8.616;2023-07-29T05:23:07;19.50;99.90
7720;DHT22;3902;49.474;8.616;2023-07-29T05:25:33;19.50;99.90
7720;DHT22;3902;49.474;8.616;2023-07-29T05:28:00;19.50;99.90
7720;DHT22;3902;49.474;8.616;2023-07-29T05:30:26;19.50;99.90
7720;DHT22;3902;49.474;8.616;2023-07-29T05:32:52;19.60;99.90
7720;DHT22;3902;49.474;8.616;2023-07-29T05:35:18;19.50;99.90
7720;DHT22;3902;49.474;8.616;2023-07-29T05:37:43;19.60;99.90
7720;DHT22;3902;49.474;8.616;2023-07-29T05:40:09;19.60;99.90
7720;DHT22;3902;49.474;8.616;2023-07-29T05:42:35;19.50;99.90
7720;DHT22;3902;49.474;8.616;2023-07-29T05:45:01;19.60;99.90
7720;DHT22;3902;49.474;8.616;2023-07-29T05:47:26;19.50;99.90
7720;DHT22;3902;49.474;8.616;2023-07-29T05:49:52;19.50;99.90
7720;DHT22;3902;49.474;8.616;2023-07-29T05:52:18;19.50;99.90
7720;DHT22;3902;49.474;8.616;2023-07-29T05:54:43;19.60;99.90
7720;DHT22;3902;49.474;8.616;2023-07-29T05:57:10;19.60;99.90
7720;DHT22;3902;49.474;8.616;2023-07-29T05:59:36;19.60;99.90
7720;DHT22;3902;49.474;8.616;2023-07-29T06:02:02;19.60;99.90
7720;DHT22;3902;49.474;8.616;2023-07-29T06:04:27;19.50;99.90
7720;DHT22;3902;49.474;8.616;2023-07-29T06:06:53;19.60;99.90
7720;DHT22;3902;49.474;8.616;2023-07-29T06:09:18;19.60;99.90
7720;DHT22;3902;49.474;8.616;2023-07-29T06:11:44;19.60;99.90
7720;DHT22;3902;49.474;8.616;2023-07-29T06:14:09;19.60;99.90
7720;DHT22;3902;49.474;8.616;2023-07-29T06:16:35;19.70;99.90
7720;DHT22;3902;49.474;8.616;2023-07-29T06:19:00;19.70;99.90
7720;DHT22;3902;49.474;8.616;2023-07-29T06:21:26;19.80;99.90
7720;DHT22;3902;49.474;8.616;2023-07-29T06:23:51;19.80;99.90
7720;DHT22;3902;49.474;8.616;2023-07-29T06:26:17;19.80;99.90
7720;DHT22;3902;49.474;8.616;2023-07-29T06:28:42;19.90;99.90
7720;DHT22;3902;49.474;8.616;2023-07-29T06:31:08;19.90;99.90
7720;DHT22;3902;49.474;8.616;2023-07-29T06:33:34;20.00;99.90
7720;DHT22;3902;49.474;8.616;2023-07-29T06:35:59;20.00;99.90
7720;DHT22;3902;49.474;8.616;2023-07-29T06:38:25;20.10;99.90
7720;DHT22;3902;49.474;8.616;2023-07-29T06:40:50;20.10;99.90
7720;DHT22;3902;49.474;8.616;2023-07-29T06:43:16;20.10;99.90
7720;DHT22;3902;49.474;8.616;2023-07-29T06:45:42;20.10;99.90
7720;DHT22;3902;49.474;8.616;2023-07-29T06:48:08;20.10;99.90
7720;DHT22;3902;49.474;8.616;2023-07-29T06:50:33;20.10;99.90
7720;DHT22;3902;49.474;8.616;2023-07-29T06:52:59;20.10;99.90
7720;DHT22;3902;49.474;8.616;2023-07-29T06:55:24;20.10;99.90
7720;DHT22;3902;49.474;8.616;2023-07-29T06:57:50;20.20;99.90
7720;DHT22;3902;49.474;8.616;2023-07-29T07:00:15;20.20;99.90
7720;DHT22;3902;49.474;8.616;2023-07-29T07:02:41;20.20;99.90
7720;DHT22;3902;49.474;8.616;2023-07-29T07:05:07;20.30;99.90
7720;DHT22;3902;49.474;8.616;2023-07-29T07:07:32;20.30;99.90
7720;DHT22;3902;49.474;8.616;2023-07-29T07:09:58;20.40;99.90
7720;DHT22;3902;49.474;8.616;2023-07-29T07:12:24;20.40;99.90
7720;DHT22;3902;49.474;8.616;2023-07-29T07:14:49;20.40;99.90
7720;DHT22;3902;49.474;8.616;2023-07-29T07:17:15;20.40;99.90
7720;DHT22;3902;49.474;8.616;2023-07-29T07:19:40;20.40;99.90
7720;DHT22;3902;49.474;8.616;2023-07-29T07:22:06;20.50;99.90
7720;DHT22;3902;49.474;8.616;2023-07-29T07:24:31;20.50;99.90
7720;DHT22;3902;49.474;8.616;2023-07-29T07:26:57;20.50;99.90
7720;DHT22;3902;49.474;8.616;2023-07-29T07:29:22;20.50;99.90
7720;DHT22;3902;49.474;8.616;2023-07-29T07:31:53;20.60;99.90
7720;DHT22;3902;49.474;8.616;2023-07-29T07:34:19;20.60;99.90
7720;DHT22;3902;49.474;8.616;2023-07-29T07:36:45;20.70;99.90
7720;DHT22;3902;49.474;8.616;2023-07-29T07:39:10;20.80;99.90
7720;DHT22;3902;49.474;8.616;2023-07-29T07:41:36;20.90;99.90
7720;DHT22;3902;49.474;8.616;2023-07-29T07:44:01;21.00;99.90
7720;DHT22;3902;49.474;8.616;2023-07-29T07:46:28;21.00;99.90
7720;DHT22;3902;49.474;8.616;2023-07-29T07:48:53;21.10;99.90
7720;DHT22;3902;49.474;8.616;2023-07-29T07:51:19;21.10;99.90
7720;DHT22;3902;49.474;8.616;2023-07-29T07:53:44;21.10;99.90
7720;DHT22;3902;49.474;8.616;2023-07-29T07:56:10;21.10;99.90
7720;DHT22;3902;49.474;8.616;2023-07-29T07:58:35;21.10;99.90
7720;DHT22;3902;49.474;8.616;2023-07-29T08:01:05;21.20;99.90
7720;DHT22;3902;49.474;8.616;2023-07-29T08:03:32;21.20;99.90
7720;DHT22;3902;49.474;8.616;2023-07-29T08:05:58;21.30;99.90
7720;DHT22;3902;49.474;8.616;2023-07-29T08:08:24;21.30;99.90
7720;DHT22;3902;49.474;8.616;2023-07-29T08:10:49;21.40;99.90
7720;DHT22;3902;49.474;8.616;2023-07-29T08:13:15;21.40;99.90
7720;DHT22;3902;49.474;8.616;2023-07-29T08:15:41;21.50;99.90
7720;DHT22;3902;49.474;8.616;2023-07-29T08:18:07;21.60;99.90
7720;DHT22;3902;49.474;8.616;2023-07-29T08:20:32;21.60;99.90
7720;DHT22;3902;49.474;8.616;2023-07-29T08:22:58;21.60;99.90
7720;DHT22;3902;49.474;8.616;2023-07-29T08:25:23;21.60;99.90
7720;DHT22;3902;49.474;8.616;2023-07-29T08:27:49;21.60;99.90
7720;DHT22;3902;49.474;8.616;2023-07-29T08:30:14;21.60;99.90
7720;DHT22;3902;49.474;8.616;2023-07-29T08:32:41;21.60;99.90
7720;DHT22;3902;49.474;8.616;2023-07-29T08:35:07;21.60;99.90
7720;DHT22;3902;49.474;8.616;2023-07-29T08:37:33;21.50;99.90
7720;DHT22;3902;49.474;8.616;2023-07-29T08:39:59;21.40;99.90
7720;DHT22;3902;49.474;8.616;2023-07-29T08:42:28;21.50;99.90
7720;DHT22;3902;49.474;8.616;2023-07-29T08:44:54;21.40;99.90
7720;DHT22;3902;49.474;8.616;2023-07-29T08:47:21;21.40;99.90
7720;DHT22;3902;49.474;8.616;2023-07-29T08:49:47;21.40;99.90
7720;DHT22;3902;49.474;8.616;2023-07-29T08:52:14;21.40;99.90
7720;DHT22;3902;49.474;8.616;2023-07-29T08:54:40;21.40;99.90
7720;DHT22;3902;49.474;8.616;2023-07-29T08:57:06;21.40;99.90
7720;DHT22;3902;49.474;8.616;2023-07-29T08:59:33;21.40;99.90
7720;DHT22;3902;49.474;8.616;2023-07-29T09:01:58;21.50;99.90
7720;DHT22;3902;49.474;8.616;2023-07-29T09:04:24;21.50;99.90
7720;DHT22;3902;49.474;8.616;2023-07-29T09:06:51;21.50;99.90
7720;DHT22;3902;49.474;8.616;2023-07-29T09:09:17;21.50;99.90
7720;DHT22;3902;49.474;8.616;2023-07-29T09:11:43;21.50;99.90
7720;DHT22;3902;49.474;8.616;2023-07-29T09:14:09;21.50;99.90
7720;DHT22;3902;49.474;8.616;2023-07-29T09:16:35;21.60;99.90
7720;DHT22;3902;49.474;8.616;2023-07-29T09:19:02;21.70;99.90
7720;DHT22;3902;49.474;8.616;2023-07-29T09:21:28;21.80;99.90
7720;DHT22;3902;49.474;8.616;2023-07-29T09:23:55;21.90;99.90
7720;DHT22;3902;49.474;8.616;2023-07-29T09:26:25;21.90;99.90
7720;DHT22;3902;49.474;8.616;2023-07-29T09:28:55;21.90;99.90
7720;DHT22;3902;49.474;8.616;2023-07-29T09:31:22;22.00;99.90
7720;DHT22;3902;49.474;8.616;2023-07-29T09:33:48;22.00;99.90
7720;DHT22;3902;49.474;8.616;2023-07-29T09:36:14;22.00;99.90
7720;DHT22;3902;49.474;8.616;2023-07-29T09:38:40;22.10;99.90
7720;DHT22;3902;49.474;8.616;2023-07-29T09:41:05;22.10;99.90
7720;DHT22;3902;49.474;8.616;2023-07-29T09:43:32;22.10;99.90
7720;DHT22;3902;49.474;8.616;2023-07-29T09:46:03;22.10;99.90
7720;DHT22;3902;49.474;8.616;2023-07-29T09:48:33;22.20;99.90
7720;DHT22;3902;49.474;8.616;2023-07-29T09:50:58;22.30;99.90
7720;DHT22;3902;49.474;8.616;2023-07-29T09:53:24;22.40;99.90
7720;DHT22;3902;49.474;8.616;2023-07-29T09:55:50;22.40;99.90
7720;DHT22;3902;49.474;8.616;2023-07-29T09:58:26;22.50;99.90
7720;DHT22;3902;49.474;8.616;2023-07-29T10:00:52;22.50;99.90
7720;DHT22;3902;49.474;8.616;2023-07-29T10:03:20;22.50;99.90
7720;DHT22;3902;49.474;8.616;2023-07-29T10:05:46;22.60;99.90
7720;DHT22;3902;49.474;8.616;2023-07-29T10:08:13;22.60;99.90
7720;DHT22;3902;49.474;8.616;2023-07-29T10:10:40;22.60;99.90
7720;DHT22;3902;49.474;8.616;2023-07-29T10:13:06;22.60;99.90
7720;DHT22;3902;49.474;8.616;2023-07-29T10:15:32;22.60;99.90
7720;DHT22;3902;49.474;8.616;2023-07-29T10:17:58;22.70;99.90
7720;DHT22;3902;49.474;8.616;2023-07-29T10:20:24;22.70;99.90
7720;DHT22;3902;49.474;8.616;2023-07-29T10:22:51;22.70;99.90
7720;DHT22;3902;49.474;8.616;2023-07-29T10:25:22;22.70;99.90
7720;DHT22;3902;49.474;8.616;2023-07-29T10:30:16;22.80;99.90
7720;DHT22;3902;49.474;8.616;2023-07-29T10:32:43;22.80;99.90
7720;DHT22;3902;49.474;8.616;2023-07-29T10:35:13;22.90;99.90
7720;DHT22;3902;49.474;8.616;2023-07-29T10:37:39;23.00;99.90
7720;DHT22;3902;49.474;8.616;2023-07-29T10:40:10;23.20;99.90
7720;DHT22;3902;49.474;8.616;2023-07-29T10:42:37;23.30;99.90
7720;DHT22;3902;49.474;8.616;2023-07-29T10:45:20;23.40;99.90
7720;DHT22;3902;49.474;8.616;2023-07-29T10:47:47;23.50;99.90
7720;DHT22;3902;49.474;8.616;2023-07-29T10:50:20;23.50;99.90
7720;DHT22;3902;49.474;8.616;2023-07-29T10:52:53;23.60;99.90
7720;DHT22;3902;49.474;8.616;2023-07-29T10:55:29;23.70;99.90
7720;DHT22;3902;49.474;8.616;2023-07-29T11:00:31;23.90;99.90
7720;DHT22;3902;49.474;8.616;2023-07-29T11:03:03;24.00;99.90
7720;DHT22;3902;49.474;8.616;2023-07-29T11:05:46;24.10;99.90
7720;DHT22;3902;49.474;8.616;2023-07-29T11:11:05;24.40;99.90
7720;DHT22;3902;49.474;8.616;2023-07-29T11:13:32;24.30;99.90
7720;DHT22;3902;49.474;8.616;2023-07-29T11:15:58;24.30;99.90
7720;DHT22;3902;49.474;8.616;2023-07-29T11:18:34;24.50;99.90
7720;DHT22;3902;49.474;8.616;2023-07-29T11:21:02;24.50;99.90
7720;DHT22;3902;49.474;8.616;2023-07-29T11:23:32;24.40;99.90
7720;DHT22;3902;49.474;8.616;2023-07-29T11:25:58;24.60;99.90
7720;DHT22;3902;49.474;8.616;2023-07-29T11:28:25;24.60;99.90
7720;DHT22;3902;49.474;8.616;2023-07-29T11:30:51;24.70;99.90
7720;DHT22;3902;49.474;8.616;2023-07-29T11:33:21;24.80;99.90
7720;DHT22;3902;49.474;8.616;2023-07-29T11:35:47;25.00;99.90
7720;DHT22;3902;49.474;8.616;2023-07-29T11:38:17;25.00;99.90
7720;DHT22;3902;49.474;8.616;2023-07-29T11:40:44;25.10;99.90
7720;DHT22;3902;49.474;8.616;2023-07-29T11:43:18;25.30;99.90
7720;DHT22;3902;49.474;8.616;2023-07-29T11:45:44;25.40;99.90
7720;DHT22;3902;49.474;8.616;2023-07-29T11:48:10;25.50;99.90
7720;DHT22;3902;49.474;8.616;2023-07-29T11:50:36;25.50;99.90
7720;DHT22;3902;49.474;8.616;2023-07-29T11:53:01;25.50;99.90
7720;DHT22;3902;49.474;8.616;2023-07-29T11:55:27;25.60;99.90
7720;DHT22;3902;49.474;8.616;2023-07-29T11:57:52;25.60;99.90
7720;DHT22;3902;49.474;8.616;2023-07-29T12:00:18;25.50;99.90
7720;DHT22;3902;49.474;8.616;2023-07-29T12:02:44;25.40;99.90
7720;DHT22;3902;49.474;8.616;2023-07-29T12:05:11;25.40;99.90
7720;DHT22;3902;49.474;8.616;2023-07-29T12:07:42;25.50;99.90
7720;DHT22;3902;49.474;8.616;2023-07-29T12:10:09;25.50;99.90
7720;DHT22;3902;49.474;8.616;2023-07-29T12:12:53;25.50;99.90
7720;DHT22;3902;49.474;8.616;2023-07-29T12:15:29;25.40;99.90
7720;DHT22;3902;49.474;8.616;2023-07-29T12:17:59;25.40;99.90
7720;DHT22;3902;49.474;8.616;2023-07-29T12:20:26;25.40;99.90
7720;DHT22;3902;49.474;8.616;2023-07-29T12:22:59;25.30;99.90
7720;DHT22;3902;49.474;8.616;2023-07-29T12:25:28;25.50;99.90
7720;DHT22;3902;49.474;8.616;2023-07-29T12:27:55;25.70;99.90
7720;DHT22;3902;49.474;8.616;2023-07-29T12:30:21;25.80;99.90
7720;DHT22;3902;49.474;8.616;2023-07-29T12:32:47;26.00;99.90
7720;DHT22;3902;49.474;8.616;2023-07-29T12:35:13;26.10;99.90
7720;DHT22;3902;49.474;8.616;2023-07-29T12:37:39;26.20;99.90
7720;DHT22;3902;49.474;8.616;2023-07-29T12:40:20;26.40;99.90
7720;DHT22;3902;49.474;8.616;2023-07-29T12:42:46;26.50;99.90
7720;DHT22;3902;49.474;8.616;2023-07-29T12:45:11;26.40;99.90
7720;DHT22;3902;49.474;8.616;2023-07-29T12:47:37;26.40;99.90
7720;DHT22;3902;49.474;8.616;2023-07-29T12:50:02;26.40;99.90
7720;DHT22;3902;49.474;8.616;2023-07-29T12:52:28;26.50;99.90
7720;DHT22;3902;49.474;8.616;2023-07-29T12:54:53;26.50;99.90
7720;DHT22;3902;49.474;8.616;2023-07-29T12:57:19;26.50;99.90
7720;DHT22;3902;49.474;8.616;2023-07-29T12:59:44;26.50;99.90
7720;DHT22;3902;49.474;8.616;2023-07-29T13:02:10;26.70;99.90
7720;DHT22;3902;49.474;8.616;2023-07-29T13:04:35;26.70;99.90
7720;DHT22;3902;49.474;8.616;2023-07-29T13:07:01;26.70;99.90
7720;DHT22;3902;49.474;8.616;2023-07-29T13:09:26;26.60;99.90
7720;DHT22;3902;49.474;8.616;2023-07-29T13:11:52;26.70;99.90
7720;DHT22;3902;49.474;8.616;2023-07-29T13:14:17;26.70;99.90
7720;DHT22;3902;49.474;8.616;2023-07-29T13:16:43;26.70;99.90
7720;DHT22;3902;49.474;8.616;2023-07-29T13:19:08;26.80;99.90
7720;DHT22;3902;49.474;8.616;2023-07-29T13:21:34;26.70;99.90
7720;DHT22;3902;49.474;8.616;2023-07-29T13:23:59;26.80;99.90
7720;DHT22;3902;49.474;8.616;2023-07-29T13:26:25;26.80;99.90
7720;DHT22;3902;49.474;8.616;2023-07-29T13:28:50;26.70;99.90
7720;DHT22;3902;49.474;8.616;2023-07-29T13:31:16;26.90;99.90
7720;DHT22;3902;49.474;8.616;2023-07-29T13:33:41;27.00;99.90
7720;DHT22;3902;49.474;8.616;2023-07-29T13:36:07;27.10;99.90
7720;DHT22;3902;49.474;8.616;2023-07-29T13:38:33;27.30;99.90
7720;DHT22;3902;49.474;8.616;2023-07-29T13:40:59;27.40;99.90
7720;DHT22;3902;49.474;8.616;2023-07-29T13:43:25;27.60;99.90
7720;DHT22;3902;49.474;8.616;2023-07-29T13:45:50;27.70;99.90
7720;DHT22;3902;49.474;8.616;2023-07-29T13:48:16;27.50;99.90
7720;DHT22;3902;49.474;8.616;2023-07-29T13:50:41;27.40;99.90
7720;DHT22;3902;49.474;8.616;2023-07-29T13:53:09;27.40;99.90
7720;DHT22;3902;49.474;8.616;2023-07-29T13:55:34;27.30;99.90
7720;DHT22;3902;49.474;8.616;2023-07-29T13:58:00;27.20;99.90
7720;DHT22;3902;49.474;8.616;2023-07-29T14:00:25;27.00;99.90
7720;DHT22;3902;49.474;8.616;2023-07-29T14:02:51;26.80;99.90
7720;DHT22;3902;49.474;8.616;2023-07-29T14:05:16;26.80;99.90
7720;DHT22;3902;49.474;8.616;2023-07-29T14:07:42;26.90;99.90
7720;DHT22;3902;49.474;8.616;2023-07-29T14:10:07;27.00;99.90
7720;DHT22;3902;49.474;8.616;2023-07-29T14:12:33;27.10;99.90
7720;DHT22;3902;49.474;8.616;2023-07-29T14:14:59;27.40;99.90
7720;DHT22;3902;49.474;8.616;2023-07-29T14:17:24;27.50;99.90
7720;DHT22;3902;49.474;8.616;2023-07-29T14:19:50;27.70;99.90
7720;DHT22;3902;49.474;8.616;2023-07-29T14:22:16;27.90;99.90
7720;DHT22;3902;49.474;8.616;2023-07-29T14:24:41;27.90;99.90
7720;DHT22;3902;49.474;8.616;2023-07-29T14:27:07;28.00;99.90
7720;DHT22;3902;49.474;8.616;2023-07-29T14:29:32;28.10;99.90
7720;DHT22;3902;49.474;8.616;2023-07-29T14:31:58;28.00;99.90
7720;DHT22;3902;49.474;8.616;2023-07-29T14:34:23;27.90;99.90
7720;DHT22;3902;49.474;8.616;2023-07-29T14:36:49;27.90;99.90
7720;DHT22;3902;49.474;8.616;2023-07-29T14:39:14;27.80;99.90
7720;DHT22;3902;49.474;8.616;2023-07-29T14:41:40;27.60;99.90
7720;DHT22;3902;49.474;8.616;2023-07-29T14:44:05;27.60;99.90
7720;DHT22;3902;49.474;8.616;2023-07-29T14:46:31;27.40;99.90
7720;DHT22;3902;49.474;8.616;2023-07-29T14:48:56;27.40;99.90
7720;DHT22;3902;49.474;8.616;2023-07-29T14:51:22;27.40;99.90
7720;DHT22;3902;49.474;8.616;2023-07-29T14:53:48;27.40;99.90
7720;DHT22;3902;49.474;8.616;2023-07-29T14:56:14;27.50;99.90
7720;DHT22;3902;49.474;8.616;2023-07-29T14:58:43;27.20;99.90
7720;DHT22;3902;49.474;8.616;2023-07-29T15:01:08;27.10;99.90
7720;DHT22;3902;49.474;8.616;2023-07-29T15:03:34;27.00;99.90
7720;DHT22;3902;49.474;8.616;2023-07-29T15:05:59;27.00;99.90
7720;DHT22;3902;49.474;8.616;2023-07-29T15:08:26;27.00;99.90
7720;DHT22;3902;49.474;8.616;2023-07-29T15:10:51;27.10;99.90
7720;DHT22;3902;49.474;8.616;2023-07-29T15:13:17;27.10;99.90
7720;DHT22;3902;49.474;8.616;2023-07-29T15:15:43;27.10;99.90
7720;DHT22;3902;49.474;8.616;2023-07-29T15:18:09;27.20;99.90
7720;DHT22;3902;49.474;8.616;2023-07-29T15:20:35;27.30;99.90
7720;DHT22;3902;49.474;8.616;2023-07-29T15:23:01;27.20;99.90
7720;DHT22;3902;49.474;8.616;2023-07-29T15:25:26;27.10;99.90
7720;DHT22;3902;49.474;8.616;2023-07-29T15:27:52;27.00;99.90
7720;DHT22;3902;49.474;8.616;2023-07-29T15:30:17;26.90;99.90
7720;DHT22;3902;49.474;8.616;2023-07-29T15:32:43;26.80;99.90
7720;DHT22;3902;49.474;8.616;2023-07-29T15:35:10;26.80;99.90
7720;DHT22;3902;49.474;8.616;2023-07-29T15:37:37;26.90;99.90
7720;DHT22;3902;49.474;8.616;2023-07-29T15:40:05;27.00;99.90
7720;DHT22;3902;49.474;8.616;2023-07-29T15:42:31;26.90;99.90
7720;DHT22;3902;49.474;8.616;2023-07-29T15:44:57;26.80;99.90
7720;DHT22;3902;49.474;8.616;2023-07-29T15:47:23;26.90;99.90
7720;DHT22;3902;49.474;8.616;2023-07-29T15:49:48;26.80;99.90
7720;DHT22;3902;49.474;8.616;2023-07-29T15:52:14;26.80;99.90
7720;DHT22;3902;49.474;8.616;2023-07-29T15:54:41;26.60;99.90
7720;DHT22;3902;49.474;8.616;2023-07-29T15:57:08;26.60;99.90
7720;DHT22;3902;49.474;8.616;2023-07-29T15:59:34;26.50;99.90
7720;DHT22;3902;49.474;8.616;2023-07-29T16:02:00;26.40;99.90
7720;DHT22;3902;49.474;8.616;2023-07-29T16:04:25;26.20;99.90
7720;DHT22;3902;49.474;8.616;2023-07-29T16:06:51;26.10;99.90
7720;DHT22;3902;49.474;8.616;2023-07-29T16:09:17;26.20;99.90
7720;DHT22;3902;49.474;8.616;2023-07-29T16:11:49;26.20;99.90
7720;DHT22;3902;49.474;8.616;2023-07-29T16:14:14;26.30;99.90